Search for airport 
image banner adimage banner adimage banner ad
image banner ad

FQIN - Inhambane / National

Located in Inhambane, Mozambique

ICAO - FQIN, IATA - INH

Data provided by Airmate  

General information

Coordinates: S23°52'0" E35°24'60"
Elevation is 30 feet MSL.
 
View others Airports in Inhambane Province

Operational data

Special qualification required
Current time UTC:
Current local time:
Weather
METAR: FQIN 180600Z 21012KT 9999 SCT020 SCT025 19/16 Q1026 RERA
TAF: TAF FQIN 180400Z 1806/1906 20010KT 5000 -RA BKN018 TX27/1813Z TN20/1903Z TEMPO 1806/1810 5000 -DZ BKN015 BECMG 1812/1814 14010KT 9999 BKN020 BECMG 1818/1820 22010KT
View NOTAMs / SUP AIP / TFR affecting this airport [VIEW]
Communications frequencies: [VIEW]

Runways:

RWY identifierQFULength (ft)Width (ft)SurfaceLDA (ft)
0647°262598SAN
24262598
16492198
34492198

Airport contact information

Address: Inhambane Mozambique

Satellite view of FQIN